createdAt,value
2022-10-24T00:01:45.807Z,22.80
2022-10-24T00:04:14.114Z,23.13
2022-10-24T00:06:42.648Z,23.11
2022-10-24T00:09:10.952Z,22.83
2022-10-24T00:11:39.341Z,22.63
2022-10-24T00:14:07.735Z,22.62
2022-10-24T00:16:37.321Z,22.34
2022-10-24T00:19:05.734Z,23.13
2022-10-24T00:21:33.971Z,22.83
2022-10-24T00:24:02.246Z,22.98
2022-10-24T00:26:31.101Z,23.13
2022-10-24T00:31:33.112Z,22.85
2022-10-24T00:34:03.449Z,22.81
2022-10-24T00:36:32.261Z,22.92
2022-10-24T00:39:00.927Z,22.94
2022-10-24T00:41:33.480Z,22.73
2022-10-24T00:44:15.982Z,22.73
2022-10-24T00:46:46.096Z,22.20
2022-10-24T00:49:17.670Z,22.13
2022-10-24T00:51:48.216Z,21.53
2022-10-24T00:54:16.253Z,22.05
2022-10-24T00:56:48.714Z,21.44
2022-10-24T00:59:19.191Z,22.23
2022-10-24T01:01:47.324Z,22.26
2022-10-24T01:04:17.269Z,21.43
2022-10-24T01:06:48.465Z,21.43
2022-10-24T01:09:30.026Z,22.08
2022-10-24T01:12:05.828Z,21.93
2022-10-24T01:14:43.486Z,22.17
2022-10-24T01:17:17.928Z,22.12
2022-10-24T01:20:13.396Z,21.94
2022-10-24T01:22:52.541Z,21.39
2022-10-24T01:25:27.691Z,21.72
2022-10-24T01:28:02.998Z,22.16
2022-10-24T01:30:36.231Z,22.44
2022-10-24T01:33:07.362Z,22.53
2022-10-24T01:35:40.475Z,22.32
2022-10-24T01:38:15.884Z,22.29
2022-10-24T01:40:50.719Z,22.07
2022-10-24T01:43:21.131Z,22.37
2022-10-24T01:45:55.147Z,21.89
2022-10-24T01:48:25.808Z,20.49
2022-10-24T01:50:56.592Z,20.61
2022-10-24T01:53:26.117Z,21.89
2022-10-24T01:55:55.023Z,21.49
2022-10-24T01:58:23.334Z,21.95
2022-10-24T02:00:55.474Z,21.83
2022-10-24T02:03:26.735Z,21.72
2022-10-24T02:05:57.832Z,21.62
2022-10-24T02:08:30.316Z,21.36
2022-10-24T02:11:00.435Z,21.86
2022-10-24T02:13:31.254Z,21.73
2022-10-24T02:16:01.559Z,22.08
2022-10-24T02:18:31.080Z,22.08
2022-10-24T02:21:07.933Z,21.99
2022-10-24T02:23:38.818Z,21.90
2022-10-24T02:26:09.590Z,21.83
2022-10-24T02:28:43.607Z,22.33
2022-10-24T02:31:17.433Z,21.98
2022-10-24T02:33:46.560Z,21.92
2022-10-24T02:36:17.611Z,22.54
2022-10-24T02:38:47.931Z,22.40
2022-10-24T02:41:20.677Z,22.57
2022-10-24T02:43:50.998Z,22.87
2022-10-24T02:46:21.424Z,22.91
2022-10-24T02:48:53.051Z,22.51
2022-10-24T02:51:22.819Z,22.63
2022-10-24T02:53:51.832Z,22.45
2022-10-24T02:56:20.150Z,22.16
2022-10-24T02:58:48.459Z,22.04
2022-10-24T03:01:16.819Z,21.87
2022-10-24T03:03:46.484Z,22.26
2022-10-24T03:06:14.740Z,22.59
2022-10-24T03:08:42.958Z,22.44
2022-10-24T03:11:11.287Z,21.80
2022-10-24T03:13:39.655Z,22.10
2022-10-24T03:16:11.615Z,22.34
2022-10-24T03:18:42.378Z,22.36
2022-10-24T03:21:11.967Z,22.12
2022-10-24T03:23:40.192Z,22.02
2022-10-24T03:26:08.610Z,22.88
2022-10-24T03:28:36.922Z,23.26
2022-10-24T03:31:05.292Z,22.40
2022-10-24T03:33:33.898Z,22.79
2022-10-24T03:36:02.364Z,22.34
2022-10-24T03:38:31.998Z,22.61
2022-10-24T03:41:00.224Z,22.77
2022-10-24T03:43:28.438Z,22.43
2022-10-24T03:45:56.700Z,21.97
2022-10-24T03:48:24.924Z,22.87
2022-10-24T03:50:53.217Z,22.15
2022-10-24T03:53:21.442Z,23.06
2022-10-24T03:55:51.008Z,22.52
2022-10-24T03:58:19.257Z,22.82
2022-10-24T04:00:47.587Z,23.24
2022-10-24T04:03:15.821Z,23.28
2022-10-24T04:05:44.108Z,23.41
2022-10-24T04:08:12.418Z,23.43
2022-10-24T04:10:40.695Z,23.48
2022-10-24T04:13:10.580Z,23.55
2022-10-24T04:15:38.778Z,23.62
2022-10-24T04:18:08.454Z,23.27
2022-10-24T04:20:36.810Z,23.01
2022-10-24T04:23:05.063Z,22.75
2022-10-24T04:25:33.429Z,23.04
2022-10-24T04:28:01.646Z,23.12
2022-10-24T04:30:31.340Z,22.59
2022-10-24T04:32:59.671Z,22.27
2022-10-24T04:35:28.140Z,21.81
2022-10-24T04:37:56.400Z,22.86
2022-10-24T04:40:24.756Z,22.83
2022-10-24T04:42:52.968Z,23.11
2022-10-24T04:45:21.246Z,22.05
2022-10-24T04:47:50.915Z,21.37
2022-10-24T04:50:19.201Z,22.72
2022-10-24T04:52:47.400Z,22.39
2022-10-24T04:55:15.808Z,22.92
2022-10-24T04:57:44.277Z,22.16
2022-10-24T05:00:13.654Z,22.63
2022-10-24T05:02:41.891Z,22.84
2022-10-24T05:05:11.847Z,22.16
2022-10-24T05:07:40.093Z,22.30
2022-10-24T05:10:09.331Z,22.84
2022-10-24T05:12:37.870Z,21.88
2022-10-24T05:15:07.642Z,22.27
2022-10-24T05:17:36.197Z,23.03
2022-10-24T05:20:05.753Z,22.97
2022-10-24T05:22:35.425Z,22.95
2022-10-24T05:25:03.888Z,22.95
2022-10-24T05:27:32.834Z,22.47
2022-10-24T05:30:01.173Z,23.11
2022-10-24T05:32:29.647Z,22.14
2022-10-24T05:35:06.836Z,22.87
2022-10-24T05:37:36.668Z,22.76
2022-10-24T05:40:05.464Z,22.49
2022-10-24T05:42:33.699Z,22.60
2022-10-24T05:45:01.952Z,22.65
2022-10-24T05:47:30.225Z,22.87
2022-10-24T05:49:58.469Z,21.85
2022-10-24T05:52:26.789Z,22.81
2022-10-24T05:55:06.719Z,22.43
2022-10-24T05:57:35.908Z,22.43
2022-10-24T06:00:05.094Z,22.14
2022-10-24T06:02:33.533Z,22.90
2022-10-24T06:05:02.015Z,22.86
2022-10-24T06:07:30.336Z,22.50
2022-10-24T06:09:59.917Z,21.76
2022-10-24T06:12:28.456Z,22.12
2022-10-24T06:14:57.228Z,23.06
2022-10-24T06:17:25.466Z,22.89
2022-10-24T06:19:53.640Z,23.26
2022-10-24T06:22:24.086Z,22.79
2022-10-24T06:24:52.209Z,23.29
2022-10-24T06:27:22.543Z,23.37
2022-10-24T06:29:50.790Z,23.54
2022-10-24T06:32:19.192Z,23.68
2022-10-24T06:34:47.412Z,23.77
2022-10-24T06:37:15.654Z,23.79
2022-10-24T06:39:44.132Z,23.82
2022-10-24T06:42:12.346Z,23.90
2022-10-24T06:44:42.056Z,23.05
2022-10-24T06:47:10.687Z,23.85
2022-10-24T06:49:39.088Z,24.08
2022-10-24T06:52:07.315Z,24.20
2022-10-24T06:54:36.777Z,24.15
2022-10-24T06:57:05.002Z,24.25
2022-10-24T06:59:33.295Z,23.96
2022-10-24T07:02:05.799Z,23.95
2022-10-24T07:04:34.616Z,24.39
2022-10-24T07:07:02.832Z,23.80
2022-10-24T07:09:31.100Z,22.41
2022-10-24T07:11:59.535Z,22.78
2022-10-24T07:14:28.344Z,22.48
2022-10-24T07:16:56.601Z,22.54
2022-10-24T07:19:26.283Z,23.66
2022-10-24T07:21:54.515Z,23.75
2022-10-24T07:24:22.789Z,23.75
2022-10-24T07:26:51.293Z,22.45
2022-10-24T07:29:19.685Z,23.19
2022-10-24T07:31:48.883Z,23.81
2022-10-24T07:34:18.183Z,24.07
2022-10-24T07:36:47.836Z,24.23
2022-10-24T07:39:16.169Z,24.12
2022-10-24T07:41:44.464Z,23.91
2022-10-24T07:44:12.829Z,24.27
2022-10-24T07:46:42.249Z,24.00
2022-10-24T07:49:10.921Z,23.67
2022-10-24T07:51:39.318Z,23.70
2022-10-24T07:54:09.084Z,23.73
2022-10-24T07:56:37.508Z,23.35
2022-10-24T07:59:09.450Z,23.35
2022-10-24T08:01:38.054Z,23.85
2022-10-24T08:04:06.414Z,23.61
2022-10-24T08:06:34.729Z,24.05
2022-10-24T08:09:03.077Z,24.03
2022-10-24T08:11:33.223Z,23.81
2022-10-24T08:14:02.348Z,23.86
2022-10-24T08:16:30.799Z,24.11
2022-10-24T08:18:59.485Z,23.54
2022-10-24T08:21:27.982Z,23.40
2022-10-24T08:23:56.861Z,23.54
2022-10-24T08:26:26.500Z,23.75
2022-10-24T08:28:57.646Z,24.22
2022-10-24T08:31:26.980Z,24.59
2022-10-24T08:33:56.492Z,24.58
2022-10-24T08:36:26.614Z,24.67
2022-10-24T08:38:54.936Z,24.26
2022-10-24T08:41:29.107Z,24.72
2022-10-24T08:44:00.125Z,25.04
2022-10-24T08:46:40.611Z,25.13
2022-10-24T08:49:11.836Z,25.37
2022-10-24T08:51:43.997Z,25.31
2022-10-24T08:54:15.354Z,24.82
2022-10-24T08:56:43.999Z,25.12
2022-10-24T08:59:14.006Z,25.19
2022-10-24T09:01:45.428Z,24.97
2022-10-24T09:04:17.567Z,24.72
2022-10-24T09:06:47.311Z,24.96
2022-10-24T09:09:20.766Z,24.76
2022-10-24T09:11:53.458Z,24.21
2022-10-24T09:14:25.019Z,24.17
2022-10-24T09:16:54.982Z,24.92
2022-10-24T09:19:24.581Z,24.17
2022-10-24T09:21:54.862Z,24.73
2022-10-24T09:24:33.736Z,24.65
2022-10-24T09:27:04.419Z,24.36
2022-10-24T09:29:35.054Z,24.36
2022-10-24T09:32:03.747Z,23.14
2022-10-24T09:34:32.058Z,24.62
2022-10-24T09:37:00.268Z,24.11
2022-10-24T09:39:34.756Z,24.20
2022-10-24T09:42:03.130Z,24.85
2022-10-24T09:44:35.711Z,24.71
2022-10-24T09:47:06.165Z,24.52
2022-10-24T09:49:36.913Z,24.57
2022-10-24T09:52:09.878Z,24.60
2022-10-24T09:54:38.241Z,24.03
2022-10-24T09:57:12.824Z,24.14
2022-10-24T09:59:44.320Z,23.65
2022-10-24T10:02:26.616Z,24.37
2022-10-24T10:05:19.531Z,24.07
2022-10-24T10:07:49.935Z,24.56
2022-10-24T10:10:28.428Z,24.17
2022-10-24T10:13:03.283Z,24.23
2022-10-24T10:15:35.307Z,24.43
2022-10-24T10:18:07.384Z,23.74
2022-10-24T10:20:40.444Z,23.82
2022-10-24T10:23:24.300Z,23.73
2022-10-24T10:26:03.902Z,24.27
2022-10-24T10:28:36.551Z,23.83
2022-10-24T10:31:06.398Z,24.00
2022-10-24T10:33:40.085Z,24.19
2022-10-24T10:36:13.435Z,23.62
2022-10-24T10:39:06.878Z,24.56
2022-10-24T10:41:42.279Z,23.86
2022-10-24T10:44:24.353Z,24.55
2022-10-24T10:47:02.018Z,24.27
2022-10-24T10:49:32.817Z,24.44
2022-10-24T10:52:06.621Z,24.70
2022-10-24T10:54:48.668Z,24.13
2022-10-24T10:57:21.770Z,24.31
2022-10-24T10:59:57.174Z,24.10
2022-10-24T11:02:39.713Z,23.63
2022-10-24T11:05:21.265Z,23.72
2022-10-24T11:07:55.459Z,23.81
2022-10-24T11:10:26.311Z,23.65
2022-10-24T11:12:56.868Z,23.79
2022-10-24T11:15:28.564Z,23.31
2022-10-24T11:18:02.034Z,23.30
2022-10-24T11:20:33.604Z,23.59
2022-10-24T11:23:06.863Z,23.30
2022-10-24T11:25:38.436Z,23.55
2022-10-24T11:28:09.704Z,23.14
2022-10-24T11:30:46.597Z,22.26
2022-10-24T11:33:20.172Z,23.45
2022-10-24T11:36:02.835Z,22.69
2022-10-24T11:38:31.770Z,22.33
2022-10-24T11:41:26.265Z,22.44
2022-10-24T11:43:56.194Z,22.75
2022-10-24T11:46:26.370Z,22.17
2022-10-24T11:48:57.348Z,22.20
2022-10-24T11:51:29.518Z,22.29
2022-10-24T11:53:59.986Z,22.12
2022-10-24T11:56:31.050Z,21.89
2022-10-24T11:59:01.714Z,21.71
2022-10-24T12:01:52.081Z,21.23
2022-10-24T12:04:45.057Z,20.88
2022-10-24T12:08:00.754Z,21.28
2022-10-24T12:10:39.051Z,21.10
2022-10-24T12:13:21.195Z,21.24
2022-10-24T12:15:54.468Z,21.66
2022-10-24T12:18:28.442Z,20.95
2022-10-24T12:21:02.260Z,21.12
2022-10-24T12:23:31.557Z,20.98
2022-10-24T12:26:04.708Z,20.73
2022-10-24T12:28:33.156Z,20.89
2022-10-24T12:31:13.204Z,21.22
2022-10-24T12:33:42.069Z,21.40
2022-10-24T12:36:12.303Z,21.32
2022-10-24T12:39:07.960Z,21.19
2022-10-24T12:41:45.348Z,21.13
2022-10-24T12:44:39.020Z,21.48
2022-10-24T12:47:28.904Z,21.26
2022-10-24T12:49:57.812Z,21.99
2022-10-24T12:52:52.583Z,22.28
2022-10-24T12:55:32.760Z,22.15
2022-10-24T12:58:02.617Z,21.81
2022-10-24T13:00:33.611Z,21.75
2022-10-24T13:03:07.069Z,22.58
2022-10-24T13:05:54.327Z,22.26
2022-10-24T13:08:37.102Z,22.46
2022-10-24T13:11:20.839Z,22.34
2022-10-24T13:14:17.022Z,21.90
2022-10-24T13:16:53.323Z,22.12
2022-10-24T13:19:22.803Z,21.50
2022-10-24T13:21:52.463Z,21.97
2022-10-24T13:24:29.869Z,22.10
2022-10-24T13:27:30.769Z,21.90
2022-10-24T13:30:27.301Z,21.53
2022-10-24T13:33:32.931Z,21.93
2022-10-24T13:36:14.784Z,22.35
2022-10-24T13:38:48.550Z,21.67
2022-10-24T13:41:26.572Z,21.25
2022-10-24T13:43:58.242Z,22.42
2022-10-24T13:46:31.766Z,22.21
2022-10-24T13:49:01.500Z,22.24
2022-10-24T13:51:37.090Z,22.35
2022-10-24T13:54:11.351Z,22.22
2022-10-24T13:56:44.277Z,22.46
2022-10-24T13:59:31.114Z,22.08
2022-10-24T14:02:01.328Z,22.36
2022-10-24T14:04:30.239Z,22.61
2022-10-24T14:07:02.823Z,22.55
2022-10-24T14:09:32.094Z,22.44
2022-10-24T14:12:01.693Z,22.66
2022-10-24T14:14:33.508Z,22.79
2022-10-24T14:17:09.755Z,22.28
2022-10-24T14:19:44.499Z,22.02
2022-10-24T14:22:20.121Z,22.00
2022-10-24T14:24:49.420Z,22.00
2022-10-24T14:27:20.417Z,21.95
2022-10-24T14:29:53.569Z,21.23
2022-10-24T14:32:21.909Z,21.53
2022-10-24T14:34:50.974Z,21.89
2022-10-24T14:37:28.246Z,22.06
2022-10-24T14:39:57.134Z,22.02
2022-10-24T14:42:27.155Z,22.26
2022-10-24T14:44:58.468Z,22.04
2022-10-24T14:47:30.246Z,21.80
2022-10-24T14:49:58.876Z,22.29
2022-10-24T14:52:29.062Z,22.26
2022-10-24T14:55:02.581Z,22.10
2022-10-24T14:57:33.875Z,21.73
2022-10-24T15:00:07.621Z,21.89
2022-10-24T15:02:41.957Z,22.09
2022-10-24T15:05:25.475Z,22.66
2022-10-24T15:08:20.262Z,21.86
2022-10-24T15:10:44.837Z,21.93
2022-10-24T15:13:17.572Z,22.04
2022-10-24T15:15:53.480Z,22.12
2022-10-24T15:18:23.600Z,21.97
2022-10-24T15:20:53.257Z,22.72
2022-10-24T15:23:26.752Z,21.52
2022-10-24T15:26:01.094Z,22.21
2022-10-24T15:28:38.957Z,22.16
2022-10-24T15:31:11.324Z,22.07
2022-10-24T15:36:22.430Z,22.37
2022-10-24T15:38:54.769Z,22.10
2022-10-24T15:41:23.130Z,21.87
2022-10-24T15:43:52.705Z,21.32
2022-10-24T15:46:21.918Z,22.02
2022-10-24T15:48:50.371Z,22.26
2022-10-24T15:51:19.946Z,21.20
2022-10-24T15:53:49.173Z,21.90
2022-10-24T15:56:17.616Z,21.80
2022-10-24T15:58:45.865Z,21.96
2022-10-24T16:01:27.183Z,21.67
2022-10-24T16:03:55.920Z,21.58
2022-10-24T16:06:24.192Z,21.87
2022-10-24T16:08:52.565Z,21.71
2022-10-24T16:11:21.066Z,21.90
2022-10-24T16:13:49.306Z,21.46
2022-10-24T16:16:18.873Z,21.96
2022-10-24T16:18:47.662Z,21.50
2022-10-24T16:21:18.394Z,20.96
2022-10-24T16:23:46.668Z,21.49
2022-10-24T16:26:15.689Z,21.19
2022-10-24T16:28:44.002Z,21.66
2022-10-24T16:31:13.357Z,22.18
2022-10-24T16:33:42.922Z,21.89
2022-10-24T16:36:11.158Z,22.22
2022-10-24T16:38:39.406Z,21.92
2022-10-24T16:41:07.634Z,22.10
2022-10-24T16:43:38.859Z,21.79
2022-10-24T16:46:12.931Z,22.07
2022-10-24T16:48:42.833Z,21.78
2022-10-24T16:51:12.523Z,21.80
2022-10-24T16:53:40.853Z,21.60
2022-10-24T16:56:10.916Z,22.28
2022-10-24T16:58:39.596Z,21.62
2022-10-24T17:01:09.966Z,21.53
2022-10-24T17:03:39.074Z,22.04
2022-10-24T17:06:09.471Z,21.81
2022-10-24T17:08:37.863Z,21.72
2022-10-24T17:11:20.197Z,21.95
2022-10-24T17:13:54.917Z,21.41
2022-10-24T17:16:23.254Z,22.01
2022-10-24T17:19:05.596Z,22.17
2022-10-24T17:21:41.564Z,22.12
2022-10-24T17:24:11.773Z,21.96
2022-10-24T17:26:40.452Z,22.21
2022-10-24T17:29:09.329Z,21.96
2022-10-24T17:31:37.674Z,21.86
2022-10-24T17:34:06.271Z,22.18
2022-10-24T17:36:38.445Z,21.67
2022-10-24T17:39:10.737Z,22.19
2022-10-24T17:41:40.836Z,21.69
2022-10-24T17:44:13.754Z,21.82
2022-10-24T17:46:42.342Z,21.59
2022-10-24T17:49:11.348Z,21.28
2022-10-24T17:51:41.062Z,21.75
2022-10-24T17:54:10.835Z,21.53
2022-10-24T17:56:39.095Z,21.75
2022-10-24T17:59:07.372Z,21.27
2022-10-24T18:01:35.767Z,21.73
2022-10-24T18:04:04.786Z,21.64
2022-10-24T18:06:33.056Z,21.42
2022-10-24T18:09:01.371Z,21.86
2022-10-24T18:11:30.979Z,21.46
2022-10-24T18:13:59.673Z,21.63
2022-10-24T18:16:30.022Z,21.40
2022-10-24T18:18:59.078Z,21.58
2022-10-24T18:21:28.599Z,21.55
2022-10-24T18:23:57.489Z,21.44
2022-10-24T18:26:27.372Z,21.97
2022-10-24T18:28:58.171Z,21.15
2022-10-24T18:31:28.512Z,22.07
2022-10-24T18:34:01.430Z,21.79
2022-10-24T18:36:32.616Z,22.17
2022-10-24T18:39:01.456Z,22.20
2022-10-24T18:41:36.840Z,22.04
2022-10-24T18:44:26.873Z,22.18
2022-10-24T18:46:56.634Z,22.17
2022-10-24T18:49:25.563Z,22.15
2022-10-24T18:52:01.940Z,22.25
2022-10-24T18:54:30.670Z,22.27
2022-10-24T18:57:00.760Z,22.21
2022-10-24T18:59:32.319Z,21.94
2022-10-24T19:02:12.243Z,22.00
2022-10-24T19:04:43.604Z,22.32
2022-10-24T19:07:12.191Z,22.05
2022-10-24T19:09:40.727Z,22.22
2022-10-24T19:12:10.165Z,22.03
2022-10-24T19:14:40.419Z,22.13
2022-10-24T19:17:14.097Z,21.56
2022-10-24T19:19:43.411Z,21.64
2022-10-24T19:22:11.646Z,21.68
2022-10-24T19:24:39.945Z,21.71
2022-10-24T19:27:08.138Z,21.94
2022-10-24T19:29:36.369Z,21.46
2022-10-24T19:32:06.232Z,21.96
2022-10-24T19:34:35.039Z,21.74
2022-10-24T19:37:03.799Z,21.84
2022-10-24T19:39:33.965Z,21.57
2022-10-24T19:42:02.551Z,21.93
2022-10-24T19:44:30.839Z,21.66
2022-10-24T19:46:59.134Z,21.83
2022-10-24T19:49:28.766Z,21.08
2022-10-24T19:51:59.569Z,21.31
2022-10-24T19:54:27.852Z,21.37
2022-10-24T19:56:56.136Z,21.03
2022-10-24T19:59:25.853Z,21.40
2022-10-24T20:01:54.213Z,21.53
2022-10-24T20:04:22.582Z,21.15
2022-10-24T20:06:52.245Z,21.44
2022-10-24T20:09:20.551Z,21.46
2022-10-24T20:11:48.854Z,21.20
2022-10-24T20:14:17.152Z,21.53
2022-10-24T20:16:45.412Z,21.48
2022-10-24T20:19:13.690Z,21.65
2022-10-24T20:21:42.238Z,21.76
2022-10-24T20:24:12.075Z,21.80
2022-10-24T20:26:40.423Z,21.61
2022-10-24T20:29:08.880Z,21.68
2022-10-24T20:31:39.292Z,21.41
2022-10-24T20:34:09.803Z,21.22
2022-10-24T20:36:38.811Z,20.38
2022-10-24T20:39:08.067Z,20.60
2022-10-24T20:41:37.916Z,20.86
2022-10-24T20:44:07.393Z,20.07
2022-10-24T20:46:35.741Z,19.75
2022-10-24T20:49:04.585Z,20.44
2022-10-24T20:51:32.897Z,20.21
2022-10-24T20:54:01.161Z,19.79
2022-10-24T20:56:29.760Z,20.26
2022-10-24T20:58:59.366Z,19.95
2022-10-24T21:01:29.179Z,20.46
2022-10-24T21:03:58.847Z,20.61
2022-10-24T21:06:28.179Z,19.61
2022-10-24T21:08:58.038Z,20.48
2022-10-24T21:11:28.311Z,19.84
2022-10-24T21:13:58.198Z,20.29
2022-10-24T21:16:28.150Z,20.56
2022-10-24T21:18:56.429Z,20.59
2022-10-24T21:21:24.957Z,20.60
2022-10-24T21:23:53.894Z,20.77
2022-10-24T21:26:22.605Z,20.79
2022-10-24T21:28:59.324Z,20.84
2022-10-24T21:31:38.373Z,20.95
2022-10-24T21:34:06.688Z,20.93
2022-10-24T21:36:34.922Z,20.78
2022-10-24T21:39:03.126Z,20.35
2022-10-24T21:41:31.312Z,20.54
2022-10-24T21:43:59.592Z,20.33
2022-10-24T21:46:29.636Z,19.86
2022-10-24T21:48:59.213Z,19.89
2022-10-24T21:51:29.085Z,20.09
2022-10-24T21:53:59.655Z,20.18
2022-10-24T21:56:28.820Z,20.32
2022-10-24T21:58:59.867Z,20.12
2022-10-24T22:01:30.015Z,20.07
2022-10-24T22:04:00.405Z,19.66
2022-10-24T22:06:29.692Z,18.79
2022-10-24T22:08:58.767Z,19.38
2022-10-24T22:11:28.658Z,19.81
2022-10-24T22:13:57.429Z,19.64
2022-10-24T22:16:27.787Z,19.66
2022-10-24T22:18:56.937Z,18.94
2022-10-24T22:21:28.446Z,19.52
2022-10-24T22:23:57.459Z,18.87
2022-10-24T22:26:26.316Z,19.53
2022-10-24T22:28:55.822Z,19.48
2022-10-24T22:31:24.813Z,19.56
2022-10-24T22:33:53.648Z,18.68
2022-10-24T22:36:38.282Z,18.95
2022-10-24T22:39:14.042Z,19.16
2022-10-24T22:41:43.207Z,19.57
2022-10-24T22:44:12.754Z,19.38
2022-10-24T22:47:27.897Z,19.23
2022-10-24T22:50:02.508Z,19.00
2022-10-24T22:52:32.732Z,18.80
2022-10-24T22:55:03.856Z,18.58
2022-10-24T22:57:33.096Z,18.05
2022-10-24T23:00:01.687Z,18.09
2022-10-24T23:02:33.614Z,18.12
2022-10-24T23:05:06.539Z,17.94
2022-10-24T23:07:44.088Z,17.69
2022-10-24T23:10:14.251Z,17.08
2022-10-24T23:12:43.020Z,17.67
2022-10-24T23:15:14.478Z,17.52
2022-10-24T23:17:43.870Z,18.13
2022-10-24T23:20:19.794Z,17.83
2022-10-24T23:22:58.111Z,17.54
2022-10-24T23:25:37.977Z,17.76
2022-10-24T23:28:10.651Z,17.61
2022-10-24T23:30:39.413Z,17.44
2022-10-24T23:33:11.380Z,18.02
2022-10-24T23:35:40.071Z,17.89
2022-10-24T23:38:11.084Z,17.92
2022-10-24T23:40:40.018Z,18.14
2022-10-24T23:43:14.760Z,18.31
2022-10-24T23:45:50.385Z,18.26
2022-10-24T23:48:23.227Z,18.23
2022-10-24T23:50:55.622Z,18.32
2022-10-24T23:53:32.105Z,18.40
2022-10-24T23:56:01.388Z,18.53
2022-10-24T23:58:29.623Z,17.93
